| time (UTC) | temp C | wind direction | speed KPH | gust KPH | rain 1hr cm | rain 24hr cm | rain mn cm | humidity % | barometer mb |
| 20260507170238 | 20 | 300 | 8.0 | 0.0 | 0.00 | 0.00 | 0.00 | 75 | 1014.0 |
| 20260507165238 | 20 | 300 | 8.0 | 0.0 | 0.00 | 0.00 | 0.00 | 75 | 1014.0 |
| 20260507164237 | 20 | 300 | 8.0 | 0.0 | 0.00 | 0.00 | 0.00 | 75 | 1015.0 |
| 20260507163237 | 21 | 300 | 9.7 | 0.0 | 0.00 | 0.00 | 0.00 | 75 | 1015.0 |
| 20260507162236 | 21 | 300 | 9.7 | 0.0 | 0.00 | 0.00 | 0.00 | 75 | 1015.0 |
| 20260507161236 | 19 | 290 | 8.0 | 0.0 | 0.00 | 0.00 | 0.00 | 82 | 1015.0 |
| 20260507160235 | 20 | 290 | 9.7 | 0.0 | 0.00 | 0.00 | 0.00 | 82 | 1015.0 |
| 20260507155233 | 19 | 290 | 9.7 | 0.0 | 0.00 | 0.00 | 0.00 | 82 | 1015.0 |
| 20260507154232 | 20 | 290 | 9.7 | 0.0 | 0.00 | 0.00 | 0.00 | 82 | 1016.0 |
| 20260507153232 | 18 | 290 | 9.7 | 0.0 | 0.00 | 0.00 | 0.00 | 77 | 1016.0 |
| 20260507152231 | 18 | 290 | 9.7 | 0.0 | 0.00 | 0.00 | 0.00 | 75 | 1016.0 |
| 20260507151231 | 18 | 290 | 9.7 | 0.0 | 0.00 | 0.00 | 0.00 | 73 | 1016.0 |
| 20260507150229 | 18 | 290 | 9.7 | 0.0 | 0.00 | 0.00 | 0.00 | 70 | 1016.0 |
| 20260507145229 | 18 | 290 | 9.7 | 0.0 | 0.00 | 0.00 | 0.00 | 70 | 1016.0 |
| 20260507144228 | 18 | 290 | 9.7 | 0.0 | 0.00 | 0.00 | 0.00 | 70 | 1016.0 |
| 20260507143228 | 18 | 290 | 9.7 | 0.0 | 0.00 | 0.00 | 0.00 | 70 | 1016.0 |
| 20260507142226 | 18 | 290 | 9.7 | 0.0 | 0.00 | 0.00 | 0.00 | 70 | 1017.0 |
| 20260507141224 | 18 | 290 | 9.7 | 0.0 | 0.00 | 0.00 | 0.00 | 69 | 1017.0 |
| 20260507140222 | 19 | 0 | 3.2 | 0.0 | 0.00 | 0.00 | 0.00 | 68 | 1017.0 |
| 20260507135222 | 20 | 0 | 3.2 | 0.0 | 0.00 | 0.00 | 0.00 | 68 | 1017.0 |
| 20260507134221 | 20 | 0 | 3.2 | 0.0 | 0.00 | 0.00 | 0.00 | 68 | 1017.0 |
| 20260507133220 | 14 | 299 | 8.0 | 6.4 | 0.00 | 0.00 | 0.00 | 73 | 1017.0 |
| 20260507132219 | 14 | 309 | 3.2 | 1.6 | 0.00 | 0.00 | 0.00 | 73 | 1017.0 |
| 20260507131217 | 15 | 309 | 3.2 | 1.6 | 0.00 | 0.00 | 0.00 | 73 | 1017.0 |
| 20260507130215 | 15 | 306 | 1.6 | 1.6 | 0.00 | 0.00 | 0.00 | 73 | 1017.0 |
| 20260507125215 | 15 | 306 | 1.6 | 1.6 | 0.00 | 0.00 | 0.00 | 73 | 1017.0 |
| 20260507124213 | 11 | 309 | 3.2 | 1.6 | 0.00 | 0.00 | 0.00 | 82 | 1017.0 |
| 20260507123212 | 13 | 90 | 6.4 | 0.0 | 0.00 | 0.00 | 0.00 | 82 | 1017.0 |
| 20260507122211 | 13 | 90 | 6.4 | 0.0 | 0.00 | 0.00 | 0.00 | 82 | 1017.0 |
| 20260507121211 | 14 | 90 | 6.4 | 0.0 | 0.00 | 0.00 | 0.00 | 82 | 1017.0 |
| 20260507120210 | 14 | 90 | 6.4 | 0.0 | 0.00 | 0.00 | 0.00 | 82 | 1017.0 |
| 20260507115210 | 15 | 90 | 6.4 | 0.0 | 0.00 | 0.00 | 0.00 | 82 | 1017.0 |
| 20260507114209 | 10 | 105 | 8.0 | 4.8 | 0.00 | 0.00 | 0.00 | 76 | 1017.0 |
| 20260507113207 | 10 | 105 | 8.0 | 4.8 | 0.00 | 0.00 | 0.00 | 76 | 1017.0 |
| 20260507112207 | 10 | 105 | 8.0 | 4.8 | 0.00 | 0.00 | 0.00 | 76 | 1017.0 |
| 20260507111206 | 10 | 105 | 8.0 | 4.8 | 0.00 | 0.00 | 0.00 | 75 | 1017.0 |
| 20260507110204 | 10 | 105 | 8.0 | 4.8 | 0.00 | 0.00 | 0.00 | 75 | 1017.0 |
| 20260507105204 | 10 | 105 | 8.0 | 4.8 | 0.00 | 0.00 | 0.00 | 76 | 1017.0 |
| 20260507104202 | 10 | 105 | 8.0 | 4.8 | 0.00 | 0.00 | 0.00 | 75 | 1017.0 |
| 20260507103200 | 10 | 105 | 8.0 | 4.8 | 0.00 | 0.00 | 0.00 | 75 | 1017.0 |
| 20260507102158 | 10 | 105 | 8.0 | 4.8 | 0.00 | 0.00 | 0.00 | 75 | 1017.0 |
| 20260507101156 | 10 | 105 | 8.0 | 4.8 | 0.00 | 0.00 | 0.00 | 75 | 1017.0 |
| 20260507100155 | 10 | 105 | 8.0 | 4.8 | 0.00 | 0.00 | 0.00 | 75 | 1017.0 |
| 20260507095155 | 10 | 110 | 8.0 | 4.8 | 0.00 | 0.00 | 0.00 | 75 | 1017.0 |
| 20260507094154 | 10 | 110 | 8.0 | 4.8 | 0.00 | 0.00 | 0.00 | 75 | 1017.0 |
| 20260507093154 | 10 | 110 | 8.0 | 4.8 | 0.00 | 0.00 | 0.00 | 75 | 1017.0 |
| 20260507092153 | 10 | 110 | 8.0 | 4.8 | 0.00 | 0.00 | 0.00 | 76 | 1017.0 |
| 20260507091152 | 10 | 110 | 8.0 | 4.8 | 0.00 | 0.00 | 0.00 | 75 | 1017.0 |
| 20260507090148 | 10 | 110 | 8.0 | 4.8 | 0.00 | 0.00 | 0.00 | 75 | 1017.0 |
| 20260507085147 | 10 | 110 | 8.0 | 4.8 | 0.00 | 0.00 | 0.00 | 75 | 1017.0 |
| 20260507084146 | 10 | 108 | 8.0 | 4.8 | 0.00 | 0.00 | 0.00 | 75 | 1017.0 |
| 20260507083144 | 10 | 108 | 8.0 | 4.8 | 0.00 | 0.00 | 0.00 | 75 | 1017.0 |
| 20260507082142 | 10 | 108 | 8.0 | 4.8 | 0.00 | 0.00 | 0.00 | 75 | 1017.0 |
| 20260507081140 | 10 | 111 | 8.0 | 4.8 | 0.00 | 0.00 | 0.00 | 76 | 1017.0 |
| 20260507080140 | 10 | 107 | 8.0 | 4.8 | 0.00 | 0.00 | 0.00 | 76 | 1017.0 |
| 20260507075139 | 10 | 107 | 8.0 | 4.8 | 0.00 | 0.00 | 0.00 | 76 | 1017.0 |
| 20260507074138 | 10 | 107 | 8.0 | 4.8 | 0.00 | 0.00 | 0.00 | 76 | 1017.0 |
| 20260507073138 | 10 | 107 | 8.0 | 4.8 | 0.00 | 0.00 | 0.00 | 76 | 1017.0 |
| 20260507072137 | 10 | 107 | 8.0 | 4.8 | 0.00 | 0.00 | 0.00 | 76 | 1017.0 |
| 20260507071136 | 10 | 107 | 8.0 | 4.8 | 0.00 | 0.00 | 0.00 | 76 | 1017.0 |
| 20260507070135 | 10 | 107 | 8.0 | 4.8 | 0.00 | 0.00 | 0.00 | 76 | 1017.0 |
| 20260507065134 | 10 | 107 | 8.0 | 4.8 | 0.00 | 0.00 | 0.00 | 76 | 1017.0 |
| 20260507064132 | 11 | 107 | 8.0 | 4.8 | 0.00 | 0.00 | 0.00 | 76 | 1018.0 |
| 20260507063132 | 11 | 107 | 8.0 | 4.8 | 0.00 | 0.00 | 0.00 | 76 | 1018.0 |
| 20260507062131 | 11 | 107 | 8.0 | 4.8 | 0.00 | 0.00 | 0.00 | 76 | 1018.0 |
| 20260507061128 | 11 | 107 | 8.0 | 4.8 | 0.00 | 0.00 | 0.00 | 76 | 1018.0 |
| 20260507060128 | 11 | 107 | 8.0 | 4.8 | 0.00 | 0.00 | 0.00 | 76 | 1018.0 |
| 20260507055126 | 11 | 107 | 8.0 | 4.8 | 0.00 | 0.00 | 0.00 | 76 | 1018.0 |
| 20260507054126 | 11 | 107 | 8.0 | 4.8 | 0.00 | 0.00 | 0.00 | 76 | 1018.0 |
| 20260507053124 | 11 | 107 | 8.0 | 4.8 | 0.00 | 0.00 | 0.00 | 74 | 1018.0 |
| 20260507052122 | 11 | 107 | 8.0 | 4.8 | 0.00 | 0.00 | 0.00 | 74 | 1018.0 |
| 20260507051122 | 11 | 107 | 8.0 | 4.8 | 0.00 | 0.00 | 0.00 | 74 | 1018.0 |
| 20260507050121 | 11 | 107 | 8.0 | 4.8 | 0.00 | 0.00 | 0.00 | 74 | 1018.0 |
| 20260507045121 | 11 | 107 | 8.0 | 4.8 | 0.00 | 0.00 | 0.00 | 74 | 1018.0 |
| 20260507044119 | 11 | 107 | 8.0 | 4.8 | 0.00 | 0.00 | 0.00 | 74 | 1018.0 |
| 20260507043119 | 11 | 111 | 11.3 | 6.4 | 0.00 | 0.00 | 0.00 | 74 | 1018.0 |
| 20260507042117 | 11 | 111 | 11.3 | 6.4 | 0.00 | 0.00 | 0.00 | 74 | 1018.0 |
| 20260507041115 | 11 | 111 | 11.3 | 6.4 | 0.00 | 0.00 | 0.00 | 74 | 1018.0 |
| 20260507040115 | 11 | 111 | 11.3 | 6.4 | 0.00 | 0.00 | 0.00 | 74 | 1018.0 |
| 20260507035114 | 11 | 111 | 11.3 | 6.4 | 0.00 | 0.00 | 0.00 | 75 | 1019.0 |
| 20260507034114 | 11 | 111 | 11.3 | 6.4 | 0.00 | 0.00 | 0.00 | 75 | 1019.0 |
| 20260507033111 | 11 | 111 | 11.3 | 6.4 | 0.00 | 0.00 | 0.00 | 75 | 1019.0 |
| 20260507032110 | 12 | 111 | 11.3 | 6.4 | 0.00 | 0.00 | 0.00 | 75 | 1018.0 |
| 20260507031108 | 12 | 111 | 11.3 | 6.4 | 0.00 | 0.00 | 0.00 | 75 | 1018.0 |
| 20260507030059 | 12 | 111 | 11.3 | 6.4 | 0.00 | 0.00 | 0.00 | 75 | 1018.0 |
| 20260507025058 | 13 | 111 | 11.3 | 6.4 | 0.00 | 0.00 | 0.00 | 75 | 1018.0 |
| 20260507024058 | 13 | 111 | 11.3 | 6.4 | 0.00 | 0.00 | 0.00 | 75 | 1018.0 |
| 20260507023057 | 13 | 111 | 11.3 | 6.4 | 0.00 | 0.00 | 0.00 | 75 | 1018.0 |
| 20260507022057 | 14 | 111 | 11.3 | 6.4 | 0.00 | 0.00 | 0.00 | 75 | 1017.0 |
| 20260507021056 | 11 | 280 | 12.9 | 0.0 | 0.00 | 0.00 | 0.00 | 70 | 1017.0 |
| 20260507020056 | 11 | 280 | 12.9 | 0.0 | 0.00 | 0.00 | 0.00 | 70 | 1018.0 |
| 20260507015055 | 11 | 280 | 12.9 | 0.0 | 0.00 | 0.00 | 0.00 | 70 | 1018.0 |
| 20260507014053 | 11 | 280 | 12.9 | 0.0 | 0.00 | 0.00 | 0.00 | 70 | 1017.0 |
| 20260507013052 | 11 | 280 | 12.9 | 0.0 | 0.00 | 0.00 | 0.00 | 70 | 1017.0 |
| 20260507012051 | 11 | 280 | 12.9 | 0.0 | 0.00 | 0.00 | 0.00 | 70 | 1016.0 |
| 20260507011049 | 11 | 280 | 12.9 | 0.0 | 0.00 | 0.00 | 0.00 | 70 | 1017.0 |
| 20260507010048 | 11 | 280 | 12.9 | 0.0 | 0.00 | 0.00 | 0.00 | 70 | 1017.0 |
| 20260507005048 | 11 | 280 | 12.9 | 0.0 | 0.00 | 0.00 | 0.00 | 70 | 1017.0 |
| 20260507004047 | 12 | 280 | 12.9 | 0.0 | 0.00 | 0.00 | 0.00 | 70 | 1016.0 |
| 20260507003046 | 12 | 280 | 12.9 | 0.0 | 0.00 | 0.00 | 0.00 | 70 | 1016.0 |
| 20260507002045 | 12 | 280 | 12.9 | 0.0 | 0.00 | 0.00 | 0.00 | 70 | 1015.0 |
| 20260507001045 | 13 | 280 | 12.9 | 0.0 | 0.00 | 0.00 | 0.00 | 70 | 1015.0 |
| 20260507000044 | 13 | 280 | 12.9 | 0.0 | 0.00 | 0.00 | 0.00 | 70 | 1015.0 |
| 20260506235044 | 13 | 280 | 12.9 | 0.0 | 0.00 | 0.00 | 0.00 | 70 | 1015.0 |
| 20260506234043 | 14 | 280 | 12.9 | 0.0 | 0.00 | 0.00 | 0.00 | 70 | 1015.0 |
| 20260506233043 | 15 | 280 | 12.9 | 0.0 | 0.00 | 0.00 | 0.00 | 70 | 1014.0 |
| 20260506232042 | 15 | 280 | 12.9 | 0.0 | 0.00 | 0.00 | 0.00 | 70 | 1014.0 |
| 20260506231042 | 15 | 280 | 12.9 | 0.0 | 0.00 | 0.00 | 0.00 | 70 | 1014.0 |
| 20260506230041 | 15 | 280 | 12.9 | 0.0 | 0.00 | 0.00 | 0.00 | 70 | 1014.0 |
| 20260506225036 | 16 | 280 | 12.9 | 0.0 | 0.00 | 0.00 | 0.00 | 70 | 1014.0 |
| 20260506224035 | 16 | 280 | 12.9 | 0.0 | 0.00 | 0.00 | 0.00 | 70 | 1013.0 |
| 20260506223035 | 16 | 280 | 12.9 | 0.0 | 0.00 | 0.00 | 0.00 | 70 | 1013.0 |
| 20260506222033 | 17 | 280 | 12.9 | 0.0 | 0.00 | 0.00 | 0.00 | 69 | 1012.0 |
| 20260506221029 | 17 | 280 | 12.9 | 0.0 | 0.00 | 0.00 | 0.00 | 69 | 1012.0 |
| 20260506220028 | 17 | 280 | 12.9 | 0.0 | 0.00 | 0.00 | 0.00 | 69 | 1012.0 |
| 20260506215026 | 18 | 280 | 12.9 | 0.0 | 0.00 | 0.00 | 0.00 | 69 | 1012.0 |
| 20260506214025 | 18 | 280 | 12.9 | 0.0 | 0.00 | 0.00 | 0.00 | 69 | 1012.0 |
| 20260506213024 | 18 | 280 | 12.9 | 0.0 | 0.00 | 0.00 | 0.00 | 69 | 1012.0 |
| 20260506212023 | 18 | 280 | 12.9 | 0.0 | 0.00 | 0.00 | 0.00 | 69 | 1011.0 |
| 20260506211023 | 18 | 280 | 12.9 | 0.0 | 0.00 | 0.00 | 0.00 | 69 | 1011.0 |
| 20260506210021 | 18 | 280 | 12.9 | 0.0 | 0.00 | 0.00 | 0.00 | 69 | 1011.0 |
| 20260506205021 | 18 | 280 | 12.9 | 0.0 | 0.00 | 0.00 | 0.00 | 69 | 1011.0 |
| 20260506204021 | 19 | 280 | 12.9 | 0.0 | 0.00 | 0.00 | 0.00 | 69 | 1011.0 |
| 20260506203018 | 20 | 280 | 12.9 | 0.0 | 0.00 | 0.00 | 0.00 | 69 | 1011.0 |
| 20260506202018 | 20 | 280 | 12.9 | 0.0 | 0.00 | 0.00 | 0.00 | 69 | 1011.0 |
| 20260506201017 | 20 | 280 | 12.9 | 0.0 | 0.00 | 0.00 | 0.00 | 69 | 1011.0 |
| 20260506200016 | 21 | 280 | 12.9 | 0.0 | 0.00 | 0.00 | 0.00 | 69 | 1011.0 |
| 20260506195016 | 21 | 280 | 12.9 | 0.0 | 0.00 | 0.00 | 0.00 | 69 | 1011.0 |
| 20260506194014 | 21 | 280 | 12.9 | 0.0 | 0.00 | 0.00 | 0.00 | 69 | 1012.0 |
| 20260506193012 | 21 | 280 | 12.9 | 0.0 | 0.00 | 0.00 | 0.00 | 69 | 1012.0 |
| 20260506192010 | 21 | 280 | 12.9 | 0.0 | 0.00 | 0.00 | 0.00 | 69 | 1012.0 |
| 20260506191010 | 21 | 280 | 12.9 | 0.0 | 0.00 | 0.00 | 0.00 | 69 | 1012.0 |
| 20260506190007 | 21 | 320 | 12.9 | 0.0 | 0.00 | 0.00 | 0.00 | 69 | 1012.0 |
| 20260506185006 | 22 | 320 | 12.9 | 0.0 | 0.00 | 0.00 | 0.00 | 69 | 1012.0 |
| 20260506184005 | 22 | 320 | 12.9 | 0.0 | 0.00 | 0.00 | 0.00 | 69 | 1012.0 |
| 20260506183004 | 22 | 320 | 12.9 | 0.0 | 0.00 | 0.00 | 0.00 | 70 | 1012.0 |
| 20260506182002 | 19 | 290 | 12.9 | 0.0 | 0.00 | 0.00 | 0.00 | 76 | 1013.0 |
| 20260506181002 | 19 | 290 | 12.9 | 0.0 | 0.00 | 0.00 | 0.00 | 76 | 1013.0 |
| 20260506180000 | 20 | 290 | 12.9 | 0.0 | 0.00 | 0.00 | 0.00 | 76 | 1013.0 |
| 20260506175000 | 20 | 290 | 12.9 | 0.0 | 0.00 | 0.00 | 0.00 | 76 | 1013.0 |
| 20260506173958 | 20 | 290 | 12.9 | 0.0 | 0.00 | 0.00 | 0.00 | 76 | 1013.0 |
| 20260506172957 | 20 | 290 | 12.9 | 0.0 | 0.00 | 0.00 | 0.00 | 76 | 1014.0 |
| 20260506171956 | 20 | 290 | 12.9 | 0.0 | 0.00 | 0.00 | 0.00 | 76 | 1014.0 |
| 20260506170955 | 20 | 290 | 12.9 | 0.0 | 0.00 | 0.00 | 0.00 | 76 | 1014.0 |